createdAt,value
2022-09-23T00:01:19.486Z,96145.28
2022-09-23T00:03:47.238Z,96146.84
2022-09-23T00:06:22.402Z,96140.47
2022-09-23T00:08:50.255Z,96144.47
2022-09-23T00:11:18.527Z,96147.63
2022-09-23T00:13:47.198Z,96144.47
2022-09-23T00:16:18.528Z,96143.31
2022-09-23T00:18:45.846Z,96141.72
2022-09-23T00:21:14.445Z,96149.19
2022-09-23T00:23:43.159Z,96137.81
2022-09-23T00:26:13.129Z,96135.84
2022-09-23T00:28:40.552Z,96142.03
2022-09-23T00:31:14.587Z,96142.88
2022-09-23T00:33:41.786Z,96141.25
2022-09-23T00:36:12.475Z,96134.22
2022-09-23T00:38:39.589Z,96130.25
2022-09-23T00:41:06.715Z,96124.81
2022-09-23T00:43:43.387Z,96122.00
2022-09-23T00:46:16.664Z,96120.66
2022-09-23T00:48:44.388Z,96128.31
2022-09-23T00:51:17.847Z,96118.28
2022-09-23T00:53:50.641Z,96117.53
2022-09-23T00:56:21.529Z,96120.69
2022-09-23T00:58:50.953Z,96120.69
2022-09-23T01:01:19.474Z,96121.56
2022-09-23T01:03:47.379Z,96110.50
2022-09-23T01:06:14.541Z,96107.84
2022-09-23T01:08:45.773Z,96109.78
2022-09-23T01:11:23.900Z,96105.84
2022-09-23T01:14:32.028Z,96107.41
2022-09-23T01:17:07.266Z,96104.16
2022-09-23T01:19:54.333Z,96103.09
2022-09-23T01:22:30.427Z,96091.72
2022-09-23T01:25:21.910Z,96098.03
2022-09-23T01:28:17.511Z,96083.38
2022-09-23T01:30:48.171Z,96085.41
2022-09-23T01:33:48.872Z,96082.25
2022-09-23T01:36:48.104Z,96067.34
2022-09-23T01:39:24.178Z,96073.56
2022-09-23T01:42:04.657Z,96063.78
2022-09-23T01:44:48.197Z,96072.75
2022-09-23T01:47:19.073Z,96059.34
2022-09-23T01:49:58.726Z,96071.63
2022-09-23T01:52:40.327Z,96069.47
2022-09-23T01:55:15.342Z,96064.84
2022-09-23T01:57:53.246Z,96067.19
2022-09-23T02:00:22.966Z,96065.00
2022-09-23T02:03:07.281Z,96068.00
2022-09-23T02:05:44.945Z,96064.91
2022-09-23T02:08:19.777Z,96074.31
2022-09-23T02:10:58.797Z,96076.63
2022-09-23T02:13:32.659Z,96074.38
2022-09-23T02:16:03.725Z,96075.50
2022-09-23T02:18:41.954Z,96085.53
2022-09-23T02:21:09.652Z,96077.03
2022-09-23T02:23:43.648Z,96081.91
2022-09-23T02:26:54.944Z,96078.47
2022-09-23T02:29:33.656Z,96083.53
2022-09-23T02:32:17.951Z,96078.59
2022-09-23T02:35:34.683Z,96088.19
2022-09-23T02:38:25.978Z,96086.66
2022-09-23T02:40:58.935Z,96085.91
2022-09-23T02:43:35.381Z,96074.78
2022-09-23T02:46:04.740Z,96074.38
2022-09-23T02:48:34.811Z,96067.78
2022-09-23T02:51:03.627Z,96062.94
2022-09-23T02:53:34.966Z,96068.44
2022-09-23T02:56:03.663Z,96059.94
2022-09-23T02:58:31.075Z,96063.84
2022-09-23T03:01:26.299Z,96055.03
2022-09-23T03:04:06.701Z,96052.66
2022-09-23T03:06:59.205Z,96044.06
2022-09-23T03:09:36.502Z,96048.03
2022-09-23T03:12:21.484Z,96048.00
2022-09-23T03:14:58.579Z,96041.00
2022-09-23T03:17:51.706Z,96036.22
2022-09-23T03:20:31.269Z,96042.66
2022-09-23T03:23:01.029Z,96045.78
2022-09-23T03:25:31.372Z,96042.47
2022-09-23T03:28:01.000Z,96038.59
2022-09-23T03:30:29.682Z,96045.25
2022-09-23T03:33:00.126Z,96039.13
2022-09-23T03:35:32.419Z,96050.91
2022-09-23T03:38:15.956Z,96040.25
2022-09-23T03:40:47.706Z,96037.19
2022-09-23T03:43:15.213Z,96038.75
2022-09-23T03:45:42.557Z,96032.13
2022-09-23T03:48:09.745Z,96029.63
2022-09-23T03:50:37.023Z,96031.66
2022-09-23T03:53:04.113Z,96032.25
2022-09-23T03:55:32.139Z,96020.44
2022-09-23T03:58:00.200Z,96019.38
2022-09-23T04:00:27.669Z,96012.72
2022-09-23T04:02:54.791Z,96011.97
2022-09-23T04:05:21.829Z,96004.88
2022-09-23T04:07:50.780Z,96018.94
2022-09-23T04:10:18.055Z,96022.09
2022-09-23T04:12:45.189Z,96008.69
2022-09-23T04:15:12.279Z,96012.94
2022-09-23T04:17:39.654Z,96012.03
2022-09-23T04:20:07.035Z,96011.78
2022-09-23T04:22:34.997Z,96018.03
2022-09-23T04:25:02.295Z,96012.59
2022-09-23T04:27:30.025Z,96008.47
2022-09-23T04:29:59.177Z,96012.50
2022-09-23T04:32:26.341Z,96004.75
2022-09-23T04:34:53.427Z,96006.38
2022-09-23T04:37:20.453Z,96003.28
2022-09-23T04:39:47.539Z,96007.53
2022-09-23T04:42:14.734Z,96014.63
2022-09-23T04:44:41.815Z,96007.16
2022-09-23T04:47:08.925Z,96007.84
2022-09-23T04:49:36.046Z,96001.25
2022-09-23T04:52:05.448Z,96008.16
2022-09-23T04:54:32.904Z,96013.84
2022-09-23T04:56:59.944Z,96009.38
2022-09-23T04:59:27.082Z,96013.69
2022-09-23T05:01:55.283Z,96016.50
2022-09-23T05:04:22.753Z,96010.88
2022-09-23T05:06:49.844Z,96005.06
2022-09-23T05:09:17.840Z,96003.91
2022-09-23T05:11:45.495Z,95998.88
2022-09-23T05:14:12.913Z,96012.53
2022-09-23T05:16:40.754Z,96008.31
2022-09-23T05:19:07.959Z,96012.25
2022-09-23T05:21:35.143Z,96012.22
2022-09-23T05:24:02.455Z,96009.91
2022-09-23T05:26:31.680Z,96010.22
2022-09-23T05:28:59.650Z,96009.53
2022-09-23T05:31:28.594Z,96018.47
2022-09-23T05:34:00.803Z,96009.00
2022-09-23T05:36:32.139Z,96007.47
2022-09-23T05:39:04.179Z,96005.13
2022-09-23T05:41:31.240Z,96011.28
2022-09-23T05:43:59.634Z,96011.44
2022-09-23T05:46:29.397Z,96010.72
2022-09-23T05:49:02.222Z,96019.28
2022-09-23T05:51:31.955Z,96011.66
2022-09-23T05:54:00.135Z,96011.44
2022-09-23T05:56:28.582Z,96014.63
2022-09-23T05:58:58.026Z,95997.47
2022-09-23T06:01:28.377Z,96005.31
2022-09-23T06:03:57.121Z,96003.41
2022-09-23T06:06:31.596Z,96007.44
2022-09-23T06:09:00.092Z,95998.34
2022-09-23T06:11:30.424Z,96003.03
2022-09-23T06:14:02.415Z,96000.03
2022-09-23T06:16:32.363Z,96000.13
2022-09-23T06:19:06.565Z,96006.38
2022-09-23T06:21:38.981Z,96001.34
2022-09-23T06:24:07.427Z,96008.06
2022-09-23T06:26:37.454Z,96010.44
2022-09-23T06:29:11.767Z,96010.56
2022-09-23T06:31:42.071Z,96006.56
2022-09-23T06:34:14.144Z,96017.53
2022-09-23T06:36:45.407Z,96017.31
2022-09-23T06:39:14.235Z,96016.25
2022-09-23T06:41:41.341Z,96023.44
2022-09-23T06:44:13.588Z,96016.38
2022-09-23T06:46:40.735Z,96014.44
2022-09-23T06:49:08.510Z,96015.09
2022-09-23T06:51:35.643Z,96019.00
2022-09-23T06:54:03.397Z,96019.09
2022-09-23T06:56:34.704Z,96005.84
2022-09-23T06:59:05.342Z,96026.28
2022-09-23T07:01:33.388Z,96018.41
2022-09-23T07:04:01.594Z,96032.53
2022-09-23T07:06:28.883Z,96023.22
2022-09-23T07:08:55.948Z,96029.56
2022-09-23T07:11:23.007Z,96035.09
2022-09-23T07:13:50.127Z,96028.84
2022-09-23T07:16:17.370Z,96031.97
2022-09-23T07:18:45.661Z,96032.84
2022-09-23T07:21:15.690Z,96028.13
2022-09-23T07:23:47.237Z,96017.94
2022-09-23T07:26:15.741Z,96030.50
2022-09-23T07:28:43.158Z,96032.47
2022-09-23T07:31:13.102Z,96037.59
2022-09-23T07:33:44.201Z,96036.00
2022-09-23T07:36:17.317Z,96037.56
2022-09-23T07:38:46.057Z,96032.06
2022-09-23T07:41:18.648Z,96036.41
2022-09-23T07:43:46.917Z,96036.78
2022-09-23T07:46:17.478Z,96035.22
2022-09-23T07:48:46.278Z,96031.66
2022-09-23T07:51:18.514Z,96034.75
2022-09-23T07:53:51.098Z,96042.22
2022-09-23T07:56:19.805Z,96039.41
2022-09-23T07:59:00.063Z,96033.91
2022-09-23T08:01:29.468Z,96027.19
2022-09-23T08:03:58.375Z,96035.00
2022-09-23T08:06:25.877Z,96036.50
2022-09-23T08:08:53.598Z,96028.63
2022-09-23T08:11:20.824Z,96030.88
2022-09-23T08:13:48.025Z,96039.47
2022-09-23T08:16:15.236Z,96037.50
2022-09-23T08:18:45.713Z,96031.50
2022-09-23T08:21:12.818Z,96033.72
2022-09-23T08:23:39.941Z,96040.41
2022-09-23T08:26:13.901Z,96034.69
2022-09-23T08:28:47.866Z,96031.31
2022-09-23T08:31:15.221Z,96040.59
2022-09-23T08:33:43.097Z,96042.03
2022-09-23T08:36:10.217Z,96042.78
2022-09-23T08:38:37.391Z,96030.81
2022-09-23T08:41:27.624Z,96038.28
2022-09-23T08:43:59.047Z,96024.47
2022-09-23T08:46:32.110Z,96044.03
2022-09-23T08:49:00.933Z,96037.47
2022-09-23T08:51:41.131Z,96044.44
2022-09-23T08:54:12.868Z,96041.22
2022-09-23T08:56:43.487Z,96039.09
2022-09-23T08:59:41.673Z,96034.91
2022-09-23T09:02:18.956Z,96041.19
2022-09-23T09:04:52.564Z,96036.25
2022-09-23T09:07:36.305Z,96033.09
2022-09-23T09:10:26.709Z,96036.06
2022-09-23T09:13:06.733Z,96036.25
2022-09-23T09:15:56.249Z,96030.25
2022-09-23T09:18:25.621Z,96035.56
2022-09-23T09:21:11.577Z,96036.16
2022-09-23T09:23:48.231Z,96034.72
2022-09-23T09:26:23.983Z,96036.59
2022-09-23T09:29:31.176Z,96037.88
2022-09-23T09:31:59.586Z,96024.16
2022-09-23T09:34:35.102Z,96028.03
2022-09-23T09:37:12.520Z,96034.53
2022-09-23T09:39:39.594Z,96015.03
2022-09-23T09:42:07.443Z,96028.56
2022-09-23T09:44:48.023Z,96024.75
2022-09-23T09:47:32.842Z,96021.19
2022-09-23T09:50:21.561Z,96012.81
2022-09-23T09:52:48.660Z,96017.66
2022-09-23T09:55:25.541Z,96012.63
2022-09-23T09:58:05.147Z,96010.88
2022-09-23T10:00:42.972Z,96014.75
2022-09-23T10:03:13.249Z,96008.25
2022-09-23T10:05:46.561Z,96005.00
2022-09-23T10:08:27.222Z,96009.72
2022-09-23T10:11:05.055Z,96011.41
2022-09-23T10:13:32.171Z,96018.94
2022-09-23T10:16:02.972Z,96014.75
2022-09-23T10:18:49.998Z,96016.34
2022-09-23T10:21:26.936Z,96020.16
2022-09-23T10:24:01.617Z,96013.22
2022-09-23T10:26:38.798Z,96021.41
2022-09-23T10:29:30.766Z,96012.00
2022-09-23T10:32:34.233Z,96018.06
2022-09-23T10:35:08.890Z,96017.56
2022-09-23T10:37:37.902Z,96003.56
2022-09-23T10:40:32.684Z,96010.44
2022-09-23T10:43:37.226Z,96020.34
2022-09-23T10:46:28.210Z,96004.91
2022-09-23T10:49:31.289Z,95998.56
2022-09-23T10:52:10.294Z,95998.09
2022-09-23T10:55:05.559Z,96002.34
2022-09-23T10:57:40.478Z,96003.50
2022-09-23T11:00:29.080Z,95998.66
2022-09-23T11:03:31.070Z,96000.41
2022-09-23T11:06:21.920Z,96007.13
2022-09-23T11:08:57.302Z,96008.59
2022-09-23T11:11:39.490Z,96004.03
2022-09-23T11:14:41.102Z,95999.97
2022-09-23T11:17:23.438Z,96004.88
2022-09-23T11:20:27.979Z,95997.66
2022-09-23T11:23:24.416Z,96001.22
2022-09-23T11:26:33.338Z,95982.38
2022-09-23T11:29:06.314Z,95988.09
2022-09-23T11:31:59.715Z,95989.53
2022-09-23T11:34:52.538Z,95996.94
2022-09-23T11:37:29.574Z,95980.47
2022-09-23T11:40:04.838Z,95981.47
2022-09-23T11:42:52.357Z,95978.63
2022-09-23T11:45:29.286Z,95971.25
2022-09-23T11:48:26.848Z,95976.44
2022-09-23T11:51:01.595Z,95968.22
2022-09-23T11:53:43.024Z,95968.59
2022-09-23T11:56:34.156Z,95970.63
2022-09-23T11:59:21.498Z,95967.25
2022-09-23T12:02:12.571Z,95971.59
2022-09-23T12:04:57.885Z,95967.06
2022-09-23T12:07:44.636Z,95967.78
2022-09-23T12:10:12.198Z,95957.22
2022-09-23T12:12:55.914Z,95967.41
2022-09-23T12:15:26.254Z,95962.09
2022-09-23T12:18:05.415Z,95958.09
2022-09-23T12:20:51.441Z,95950.25
2022-09-23T12:23:52.262Z,95949.56
2022-09-23T12:26:23.550Z,95948.19
2022-09-23T12:28:54.812Z,95944.28
2022-09-23T12:31:30.555Z,95950.97
2022-09-23T12:34:20.510Z,95946.97
2022-09-23T12:36:47.798Z,95949.59
2022-09-23T12:39:17.328Z,95952.66
2022-09-23T12:41:48.635Z,95945.25
2022-09-23T12:44:31.540Z,95943.72
2022-09-23T12:47:25.767Z,95946.91
2022-09-23T12:49:53.924Z,95934.03
2022-09-23T12:52:26.945Z,95940.06
2022-09-23T12:55:02.968Z,95939.81
2022-09-23T12:57:35.909Z,95930.25
2022-09-23T13:00:15.358Z,95929.13
2022-09-23T13:03:08.205Z,95932.72
2022-09-23T13:06:16.459Z,95927.47
2022-09-23T13:08:45.011Z,95933.31
2022-09-23T13:11:32.337Z,95931.25
2022-09-23T13:14:03.445Z,95933.38
2022-09-23T13:16:33.944Z,95930.09
2022-09-23T13:19:05.904Z,95930.97
2022-09-23T13:21:45.637Z,95936.47
2022-09-23T13:24:12.668Z,95933.84
2022-09-23T13:27:10.518Z,95927.47
2022-09-23T13:30:01.955Z,95916.63
2022-09-23T13:32:32.907Z,95918.50
2022-09-23T13:35:04.163Z,95919.91
2022-09-23T13:37:37.313Z,95918.94
2022-09-23T13:40:09.934Z,95919.56
2022-09-23T13:42:39.843Z,95908.44
2022-09-23T13:45:15.895Z,95915.75
2022-09-23T13:47:44.966Z,95910.72
2022-09-23T13:50:22.268Z,95914.00
2022-09-23T13:52:57.841Z,95918.25
2022-09-23T13:55:38.888Z,95909.94
2022-09-23T13:58:21.376Z,95907.19
2022-09-23T14:00:50.392Z,95909.84
2022-09-23T14:03:45.267Z,95904.09
2022-09-23T14:06:17.579Z,95906.72
2022-09-23T14:08:48.019Z,95891.06
2022-09-23T14:11:21.799Z,95885.16
2022-09-23T14:13:54.913Z,95891.44
2022-09-23T14:16:26.713Z,95889.16
2022-09-23T14:18:59.319Z,95873.91
2022-09-23T14:21:34.654Z,95885.88
2022-09-23T14:24:35.246Z,95880.00
2022-09-23T14:27:15.825Z,95874.44
2022-09-23T14:29:45.382Z,95874.13
2022-09-23T14:32:20.961Z,95878.75
2022-09-23T14:34:52.329Z,95878.09
2022-09-23T14:37:52.303Z,95878.13
2022-09-23T14:40:38.729Z,95875.34
2022-09-23T14:43:16.252Z,95861.50
2022-09-23T14:45:50.537Z,95851.13
2022-09-23T14:48:23.184Z,95854.44
2022-09-23T14:50:58.632Z,95860.72
2022-09-23T14:53:31.334Z,95868.03
2022-09-23T14:56:11.808Z,95866.91
2022-09-23T14:58:51.984Z,95862.19
2022-09-23T15:01:25.968Z,95856.81
2022-09-23T15:03:55.470Z,95861.69
2022-09-23T15:06:23.707Z,95855.44
2022-09-23T15:08:52.471Z,95861.00
2022-09-23T15:11:21.628Z,95863.00
2022-09-23T15:13:53.000Z,95850.47
2022-09-23T15:16:27.896Z,95853.44
2022-09-23T15:18:58.620Z,95836.19
2022-09-23T15:21:41.038Z,95838.09
2022-09-23T15:24:37.705Z,95846.19
2022-09-23T15:27:11.917Z,95847.38
2022-09-23T15:29:39.314Z,95851.94
2022-09-23T15:32:07.884Z,95845.78
2022-09-23T15:34:35.154Z,95845.50
2022-09-23T15:37:02.483Z,95851.84
2022-09-23T15:39:35.990Z,95844.16
2022-09-23T15:42:03.676Z,95844.59
2022-09-23T15:44:30.774Z,95844.88
2022-09-23T15:47:01.264Z,95850.34
2022-09-23T15:49:36.324Z,95838.38
2022-09-23T15:52:05.484Z,95840.88
2022-09-23T15:54:33.709Z,95838.19
2022-09-23T15:57:01.435Z,95852.41
2022-09-23T15:59:31.081Z,95854.41
2022-09-23T16:02:05.665Z,95854.50
2022-09-23T16:04:32.989Z,95852.59
2022-09-23T16:07:01.117Z,95840.88
2022-09-23T16:09:31.475Z,95842.28
2022-09-23T16:11:58.608Z,95844.28
2022-09-23T16:14:25.709Z,95843.06
2022-09-23T16:16:52.844Z,95839.75
2022-09-23T16:19:19.981Z,95842.47
2022-09-23T16:21:47.157Z,95836.66
2022-09-23T16:24:18.619Z,95833.53
2022-09-23T16:26:48.055Z,95830.13
2022-09-23T16:29:15.446Z,95825.53
2022-09-23T16:31:42.742Z,95833.69
2022-09-23T16:34:10.025Z,95825.00
2022-09-23T16:36:43.025Z,95825.00
2022-09-23T16:39:12.549Z,95809.06
2022-09-23T16:41:39.889Z,95819.63
2022-09-23T16:44:09.262Z,95816.72
2022-09-23T16:46:36.352Z,95814.88
2022-09-23T16:49:03.859Z,95814.19
2022-09-23T16:51:38.443Z,95818.09
2022-09-23T16:54:10.091Z,95819.09
2022-09-23T16:56:44.100Z,95824.22
2022-09-23T16:59:12.887Z,95822.22
2022-09-23T17:01:58.641Z,95832.38
2022-09-23T17:04:27.256Z,95841.41
2022-09-23T17:06:55.905Z,95839.91
2022-09-23T17:09:26.451Z,95834.13
2022-09-23T17:12:16.534Z,95817.19
2022-09-23T17:14:43.701Z,95828.47
2022-09-23T17:17:10.755Z,95832.06
2022-09-23T17:19:41.183Z,95818.75
2022-09-23T17:22:08.396Z,95813.91
2022-09-23T17:24:36.692Z,95823.72
2022-09-23T17:27:03.842Z,95822.81
2022-09-23T17:29:30.889Z,95817.66
2022-09-23T17:31:58.174Z,95819.78
2022-09-23T17:34:25.260Z,95820.00
2022-09-23T17:36:52.337Z,95816.19
2022-09-23T17:39:19.395Z,95816.59
2022-09-23T17:41:46.509Z,95819.59
2022-09-23T17:44:15.429Z,95813.19
2022-09-23T17:46:43.495Z,95824.53
2022-09-23T17:49:11.308Z,95834.13
2022-09-23T17:51:38.431Z,95834.53
2022-09-23T17:54:06.219Z,95825.78
2022-09-23T17:56:33.859Z,95821.88
2022-09-23T17:59:02.083Z,95824.56
2022-09-23T18:01:29.895Z,95827.75
2022-09-23T18:04:00.929Z,95833.13
2022-09-23T18:06:35.348Z,95827.84
2022-09-23T18:09:05.558Z,95820.19
2022-09-23T18:11:35.635Z,95826.97
2022-09-23T18:14:06.559Z,95824.47
2022-09-23T18:16:39.868Z,95814.25
2022-09-23T18:19:10.290Z,95814.31
2022-09-23T18:21:40.692Z,95818.16
2022-09-23T18:26:59.497Z,95825.28
2022-09-23T18:29:26.785Z,95817.69
2022-09-23T18:31:54.072Z,95817.44
2022-09-23T18:34:21.507Z,95806.72
2022-09-23T18:36:48.595Z,95814.13
2022-09-23T18:39:15.672Z,95808.38
2022-09-23T18:41:43.049Z,95803.78
2022-09-23T18:44:10.207Z,95805.38
2022-09-23T18:46:37.404Z,95808.66
2022-09-23T18:49:23.181Z,95809.38
2022-09-23T18:51:56.090Z,95807.97
2022-09-23T18:54:25.456Z,95804.44
2022-09-23T18:56:52.706Z,95800.47
2022-09-23T18:59:23.716Z,95796.41
2022-09-23T19:01:51.052Z,95801.34
2022-09-23T19:04:20.403Z,95793.94
2022-09-23T19:06:48.095Z,95794.44
2022-09-23T19:09:16.186Z,95795.63
2022-09-23T19:11:44.274Z,95793.59
2022-09-23T19:14:12.068Z,95799.97
2022-09-23T19:16:40.667Z,95792.66
2022-09-23T19:19:08.666Z,95796.69
2022-09-23T19:21:36.352Z,95800.81
2022-09-23T19:24:06.197Z,95798.63
2022-09-23T19:26:40.696Z,95804.16
2022-09-23T19:29:12.651Z,95800.59
2022-09-23T19:31:40.786Z,95803.84
2022-09-23T19:34:15.551Z,95796.81
2022-09-23T19:36:44.574Z,95804.00
2022-09-23T19:39:16.266Z,95804.66
2022-09-23T19:41:43.408Z,95803.63
2022-09-23T19:44:10.675Z,95809.38
2022-09-23T19:46:40.682Z,95816.09
2022-09-23T19:49:08.087Z,95809.50
2022-09-23T19:51:35.440Z,95801.31
2022-09-23T19:54:04.184Z,95806.38
2022-09-23T19:56:32.446Z,95797.50
2022-09-23T19:59:00.644Z,95792.50
2022-09-23T20:01:29.403Z,95791.38
2022-09-23T20:03:56.729Z,95794.66
2022-09-23T20:06:23.840Z,95796.13
2022-09-23T20:08:50.989Z,95784.06
2022-09-23T20:11:28.100Z,95784.06
2022-09-23T20:14:01.792Z,95778.00
2022-09-23T20:16:32.315Z,95778.13
2022-09-23T20:19:00.609Z,95774.50
2022-09-23T20:21:29.203Z,95774.41
2022-09-23T20:23:57.610Z,95769.19
2022-09-23T20:26:43.768Z,95768.50
2022-09-23T20:29:13.621Z,95768.41
2022-09-23T20:31:41.038Z,95763.72
2022-09-23T20:34:10.253Z,95766.06
2022-09-23T20:36:39.459Z,95769.56
2022-09-23T20:39:07.055Z,95758.47
2022-09-23T20:41:38.030Z,95761.53
2022-09-23T20:44:12.342Z,95769.34
2022-09-23T20:46:47.445Z,95761.75
2022-09-23T20:49:18.577Z,95758.44
2022-09-23T20:51:48.068Z,95750.63
2022-09-23T20:54:16.361Z,95751.03
2022-09-23T20:56:43.586Z,95752.22
2022-09-23T20:59:14.707Z,95753.69
2022-09-23T21:01:41.940Z,95756.28
2022-09-23T21:04:09.733Z,95762.94
2022-09-23T21:06:37.833Z,95757.88
2022-09-23T21:09:06.306Z,95759.56
2022-09-23T21:11:33.857Z,95745.72
2022-09-23T21:14:01.447Z,95755.16
2022-09-23T21:16:29.603Z,95750.13
2022-09-23T21:18:57.760Z,95752.06
2022-09-23T21:21:24.993Z,95757.50
2022-09-23T21:23:52.217Z,95754.78
2022-09-23T21:26:21.933Z,95753.59
2022-09-23T21:28:51.356Z,95758.31
2022-09-23T21:31:25.156Z,95761.09
2022-09-23T21:33:54.162Z,95756.75
2022-09-23T21:36:23.883Z,95761.16
2022-09-23T21:38:51.748Z,95760.84
2022-09-23T21:41:19.748Z,95762.88
2022-09-23T21:43:47.388Z,95753.34
2022-09-23T21:46:19.957Z,95761.78
2022-09-23T21:48:50.653Z,95758.16
2022-09-23T21:51:25.372Z,95762.47
2022-09-23T21:53:54.984Z,95758.84
2022-09-23T21:56:24.749Z,95763.47
2022-09-23T21:58:54.059Z,95758.91
2022-09-23T22:01:23.239Z,95763.53
2022-09-23T22:03:56.217Z,95747.91
2022-09-23T22:06:26.833Z,95756.44
2022-09-23T22:08:58.915Z,95756.47
2022-09-23T22:11:50.658Z,95751.06
2022-09-23T22:14:20.081Z,95748.69
2022-09-23T22:16:47.229Z,95753.38
2022-09-23T22:19:15.028Z,95750.97
2022-09-23T22:21:43.916Z,95746.72
2022-09-23T22:24:12.433Z,95752.56
2022-09-23T22:26:44.323Z,95751.38
2022-09-23T22:29:33.897Z,95741.69
2022-09-23T22:32:20.872Z,95745.53
2022-09-23T22:34:50.633Z,95747.84
2022-09-23T22:37:25.636Z,95743.91
2022-09-23T22:39:53.442Z,95748.81
2022-09-23T22:42:24.062Z,95742.13
2022-09-23T22:44:51.679Z,95741.94
2022-09-23T22:47:19.856Z,95748.84
2022-09-23T22:49:47.964Z,95745.50
2022-09-23T22:52:20.779Z,95740.81
2022-09-23T22:54:48.158Z,95742.75
2022-09-23T22:57:15.274Z,95740.34
2022-09-23T22:59:47.725Z,95743.34
2022-09-23T23:02:16.963Z,95731.56
2022-09-23T23:04:46.386Z,95739.50
2022-09-23T23:07:14.965Z,95725.06
2022-09-23T23:09:41.975Z,95728.47
2022-09-23T23:12:09.123Z,95726.09
2022-09-23T23:14:36.301Z,95728.09
2022-09-23T23:17:07.182Z,95730.13
2022-09-23T23:19:36.204Z,95733.63
2022-09-23T23:22:04.629Z,95730.56
2022-09-23T23:24:32.331Z,95725.00
2022-09-23T23:26:59.371Z,95729.84
2022-09-23T23:29:27.751Z,95717.72
2022-09-23T23:31:54.923Z,95707.50
2022-09-23T23:34:22.880Z,95721.94
2022-09-23T23:36:54.335Z,95724.28
2022-09-23T23:39:26.114Z,95718.47
2022-09-23T23:41:54.974Z,95715.38
2022-09-23T23:44:24.489Z,95711.03
2022-09-23T23:46:52.549Z,95713.16
2022-09-23T23:49:20.186Z,95698.94
2022-09-23T23:51:47.820Z,95705.22
2022-09-23T23:54:15.333Z,95706.38
2022-09-23T23:56:42.786Z,95716.09
2022-09-23T23:59:10.047Z,95702.84
